sensor_id;sensor_type;location;lat;lon;timestamp;P1;durP1;ratioP1;P2;durP2;ratioP2
50393;SDS011;36308;46.312;25.288;2022-11-02T00:00:49;15.52;;;9.23;;
50393;SDS011;36308;46.312;25.288;2022-11-02T00:03:15;17.33;;;9.05;;
50393;SDS011;36308;46.312;25.288;2022-11-02T00:05:41;17.73;;;10.20;;
50393;SDS011;36308;46.312;25.288;2022-11-02T00:08:06;16.10;;;9.43;;
50393;SDS011;36308;46.312;25.288;2022-11-02T00:10:32;12.88;;;8.82;;
50393;SDS011;36308;46.312;25.288;2022-11-02T00:12:57;17.80;;;9.25;;
50393;SDS011;36308;46.312;25.288;2022-11-02T00:15:23;22.83;;;9.50;;
50393;SDS011;36308;46.312;25.288;2022-11-02T00:17:52;14.98;;;7.80;;
50393;SDS011;36308;46.312;25.288;2022-11-02T00:20:20;16.30;;;8.20;;
50393;SDS011;36308;46.312;25.288;2022-11-02T00:22:46;16.33;;;9.25;;
50393;SDS011;36308;46.312;25.288;2022-11-02T00:25:17;17.38;;;8.68;;
50393;SDS011;36308;46.312;25.288;2022-11-02T00:27:45;13.48;;;8.20;;
50393;SDS011;36308;46.312;25.288;2022-11-02T00:30:11;16.67;;;8.85;;
50393;SDS011;36308;46.312;25.288;2022-11-02T00:32:36;15.88;;;8.50;;
50393;SDS011;36308;46.312;25.288;2022-11-02T00:35:02;19.02;;;9.27;;
50393;SDS011;36308;46.312;25.288;2022-11-02T00:37:27;15.20;;;8.70;;
50393;SDS011;36308;46.312;25.288;2022-11-02T00:39:52;15.70;;;8.52;;
50393;SDS011;36308;46.312;25.288;2022-11-02T00:42:18;15.10;;;7.75;;
50393;SDS011;36308;46.312;25.288;2022-11-02T00:44:43;14.68;;;8.98;;
50393;SDS011;36308;46.312;25.288;2022-11-02T00:47:09;15.50;;;8.02;;
50393;SDS011;36308;46.312;25.288;2022-11-02T00:49:35;15.52;;;7.20;;
50393;SDS011;36308;46.312;25.288;2022-11-02T00:52:01;12.98;;;6.95;;
50393;SDS011;36308;46.312;25.288;2022-11-02T00:54:26;13.70;;;6.68;;
50393;SDS011;36308;46.312;25.288;2022-11-02T00:56:52;15.02;;;6.85;;
50393;SDS011;36308;46.312;25.288;2022-11-02T00:59:17;12.27;;;7.00;;
50393;SDS011;36308;46.312;25.288;2022-11-02T01:01:42;13.68;;;6.85;;
50393;SDS011;36308;46.312;25.288;2022-11-02T01:04:15;12.77;;;6.70;;
50393;SDS011;36308;46.312;25.288;2022-11-02T01:06:44;16.23;;;7.13;;
50393;SDS011;36308;46.312;25.288;2022-11-02T01:09:10;14.52;;;7.78;;
50393;SDS011;36308;46.312;25.288;2022-11-02T01:11:38;11.60;;;6.90;;
50393;SDS011;36308;46.312;25.288;2022-11-02T01:14:04;10.43;;;6.88;;
50393;SDS011;36308;46.312;25.288;2022-11-02T01:16:30;15.77;;;6.85;;
50393;SDS011;36308;46.312;25.288;2022-11-02T01:18:56;15.80;;;8.32;;
50393;SDS011;36308;46.312;25.288;2022-11-02T01:21:22;15.35;;;9.30;;
50393;SDS011;36308;46.312;25.288;2022-11-02T01:23:48;15.02;;;7.75;;
50393;SDS011;36308;46.312;25.288;2022-11-02T01:26:13;14.20;;;8.52;;
50393;SDS011;36308;46.312;25.288;2022-11-02T01:28:39;13.55;;;8.50;;
50393;SDS011;36308;46.312;25.288;2022-11-02T01:31:05;18.75;;;9.75;;
50393;SDS011;36308;46.312;25.288;2022-11-02T01:33:32;19.05;;;8.82;;
50393;SDS011;36308;46.312;25.288;2022-11-02T01:35:58;15.90;;;8.77;;
50393;SDS011;36308;46.312;25.288;2022-11-02T01:38:26;17.25;;;8.18;;
50393;SDS011;36308;46.312;25.288;2022-11-02T01:40:51;12.32;;;7.00;;
50393;SDS011;36308;46.312;25.288;2022-11-02T01:43:21;13.73;;;6.30;;
50393;SDS011;36308;46.312;25.288;2022-11-02T01:45:49;14.57;;;7.20;;
50393;SDS011;36308;46.312;25.288;2022-11-02T01:48:19;14.68;;;6.82;;
50393;SDS011;36308;46.312;25.288;2022-11-02T01:50:50;15.90;;;7.20;;
50393;SDS011;36308;46.312;25.288;2022-11-02T01:53:16;18.90;;;10.63;;
50393;SDS011;36308;46.312;25.288;2022-11-02T01:55:41;15.63;;;9.25;;
50393;SDS011;36308;46.312;25.288;2022-11-02T01:58:07;14.65;;;9.05;;
50393;SDS011;36308;46.312;25.288;2022-11-02T02:00:36;15.20;;;9.15;;
50393;SDS011;36308;46.312;25.288;2022-11-02T02:03:07;15.77;;;8.32;;
50393;SDS011;36308;46.312;25.288;2022-11-02T02:05:43;14.13;;;7.88;;
50393;SDS011;36308;46.312;25.288;2022-11-02T02:08:11;13.00;;;7.38;;
50393;SDS011;36308;46.312;25.288;2022-11-02T02:10:40;11.38;;;6.40;;
50393;SDS011;36308;46.312;25.288;2022-11-02T02:13:05;15.18;;;6.95;;
50393;SDS011;36308;46.312;25.288;2022-11-02T02:15:37;16.40;;;6.95;;
50393;SDS011;36308;46.312;25.288;2022-11-02T02:18:30;14.27;;;7.28;;
50393;SDS011;36308;46.312;25.288;2022-11-02T02:29:20;13.85;;;6.85;;
50393;SDS011;36308;46.312;25.288;2022-11-02T02:34:26;10.45;;;6.43;;
50393;SDS011;36308;46.312;25.288;2022-11-02T02:37:05;17.90;;;7.47;;
50393;SDS011;36308;46.312;25.288;2022-11-02T02:39:41;14.13;;;6.70;;
50393;SDS011;36308;46.312;25.288;2022-11-02T02:47:36;12.55;;;6.30;;
50393;SDS011;36308;46.312;25.288;2022-11-02T02:50:22;13.98;;;7.13;;
50393;SDS011;36308;46.312;25.288;2022-11-02T02:52:51;14.70;;;7.03;;
50393;SDS011;36308;46.312;25.288;2022-11-02T02:55:20;16.20;;;6.90;;
50393;SDS011;36308;46.312;25.288;2022-11-02T02:57:49;14.60;;;7.15;;
50393;SDS011;36308;46.312;25.288;2022-11-02T03:00:17;13.90;;;6.90;;
50393;SDS011;36308;46.312;25.288;2022-11-02T03:02:44;15.48;;;7.55;;
50393;SDS011;36308;46.312;25.288;2022-11-02T03:05:37;14.48;;;7.93;;
50393;SDS011;36308;46.312;25.288;2022-11-02T03:08:04;12.77;;;6.88;;
50393;SDS011;36308;46.312;25.288;2022-11-02T03:10:44;12.27;;;6.88;;
50393;SDS011;36308;46.312;25.288;2022-11-02T03:13:22;18.48;;;6.68;;
50393;SDS011;36308;46.312;25.288;2022-11-02T03:15:55;12.45;;;7.10;;
50393;SDS011;36308;46.312;25.288;2022-11-02T03:23:59;13.90;;;6.43;;
50393;SDS011;36308;46.312;25.288;2022-11-02T03:26:33;13.07;;;6.30;;
50393;SDS011;36308;46.312;25.288;2022-11-02T03:29:09;12.68;;;6.10;;
50393;SDS011;36308;46.312;25.288;2022-11-02T03:34:40;11.18;;;5.88;;
50393;SDS011;36308;46.312;25.288;2022-11-02T03:37:24;12.45;;;6.38;;
50393;SDS011;36308;46.312;25.288;2022-11-02T03:40:05;13.98;;;6.50;;
50393;SDS011;36308;46.312;25.288;2022-11-02T03:42:33;14.65;;;7.43;;
50393;SDS011;36308;46.312;25.288;2022-11-02T03:45:05;11.10;;;6.05;;
50393;SDS011;36308;46.312;25.288;2022-11-02T03:47:35;12.73;;;5.85;;
50393;SDS011;36308;46.312;25.288;2022-11-02T03:50:06;11.27;;;5.88;;
50393;SDS011;36308;46.312;25.288;2022-11-02T03:52:33;13.38;;;6.40;;
50393;SDS011;36308;46.312;25.288;2022-11-02T03:55:03;9.30;;;5.22;;
50393;SDS011;36308;46.312;25.288;2022-11-02T03:57:45;14.20;;;6.25;;
50393;SDS011;36308;46.312;25.288;2022-11-02T04:00:12;13.55;;;6.53;;
50393;SDS011;36308;46.312;25.288;2022-11-02T04:02:41;11.18;;;5.57;;
50393;SDS011;36308;46.312;25.288;2022-11-02T04:05:11;10.50;;;5.85;;
50393;SDS011;36308;46.312;25.288;2022-11-02T04:07:37;12.00;;;5.60;;
50393;SDS011;36308;46.312;25.288;2022-11-02T04:10:23;12.63;;;6.10;;
50393;SDS011;36308;46.312;25.288;2022-11-02T04:12:49;10.25;;;6.38;;
50393;SDS011;36308;46.312;25.288;2022-11-02T04:15:32;14.23;;;7.22;;
50393;SDS011;36308;46.312;25.288;2022-11-02T04:17:58;13.52;;;6.43;;
50393;SDS011;36308;46.312;25.288;2022-11-02T04:20:42;13.57;;;6.78;;
50393;SDS011;36308;46.312;25.288;2022-11-02T04:23:07;13.50;;;7.28;;
50393;SDS011;36308;46.312;25.288;2022-11-02T04:25:54;19.05;;;9.40;;
50393;SDS011;36308;46.312;25.288;2022-11-02T04:28:19;22.33;;;10.60;;
50393;SDS011;36308;46.312;25.288;2022-11-02T04:30:45;25.00;;;11.38;;
50393;SDS011;36308;46.312;25.288;2022-11-02T04:33:11;20.42;;;11.02;;
50393;SDS011;36308;46.312;25.288;2022-11-02T04:35:55;22.17;;;11.10;;
50393;SDS011;36308;46.312;25.288;2022-11-02T04:38:22;22.75;;;11.38;;
50393;SDS011;36308;46.312;25.288;2022-11-02T04:41:18;21.02;;;9.65;;
50393;SDS011;36308;46.312;25.288;2022-11-02T04:44:03;20.08;;;7.82;;
50393;SDS011;36308;46.312;25.288;2022-11-02T04:46:31;15.35;;;8.43;;
50393;SDS011;36308;46.312;25.288;2022-11-02T04:48:58;14.45;;;6.80;;
50393;SDS011;36308;46.312;25.288;2022-11-02T04:51:25;12.20;;;6.20;;
50393;SDS011;36308;46.312;25.288;2022-11-02T04:53:52;17.38;;;8.73;;
50393;SDS011;36308;46.312;25.288;2022-11-02T04:56:19;19.92;;;12.65;;
50393;SDS011;36308;46.312;25.288;2022-11-02T04:58:48;25.08;;;19.10;;
50393;SDS011;36308;46.312;25.288;2022-11-02T05:01:14;18.63;;;10.27;;
50393;SDS011;36308;46.312;25.288;2022-11-02T05:03:41;17.40;;;11.20;;
50393;SDS011;36308;46.312;25.288;2022-11-02T05:06:10;19.55;;;12.05;;
50393;SDS011;36308;46.312;25.288;2022-11-02T05:08:35;20.27;;;13.13;;
50393;SDS011;36308;46.312;25.288;2022-11-02T05:11:01;22.90;;;13.18;;
50393;SDS011;36308;46.312;25.288;2022-11-02T05:13:26;20.77;;;13.07;;
50393;SDS011;36308;46.312;25.288;2022-11-02T05:15:55;22.30;;;12.68;;
50393;SDS011;36308;46.312;25.288;2022-11-02T05:18:22;22.70;;;12.38;;
50393;SDS011;36308;46.312;25.288;2022-11-02T05:20:49;28.38;;;12.23;;
50393;SDS011;36308;46.312;25.288;2022-11-02T05:23:16;20.65;;;11.43;;
50393;SDS011;36308;46.312;25.288;2022-11-02T05:25:42;24.25;;;12.30;;
50393;SDS011;36308;46.312;25.288;2022-11-02T05:28:07;18.85;;;12.32;;
50393;SDS011;36308;46.312;25.288;2022-11-02T05:30:32;21.60;;;13.32;;
50393;SDS011;36308;46.312;25.288;2022-11-02T05:32:58;20.88;;;11.88;;
50393;SDS011;36308;46.312;25.288;2022-11-02T05:35:23;27.33;;;14.63;;
50393;SDS011;36308;46.312;25.288;2022-11-02T05:37:48;61.08;;;32.38;;
50393;SDS011;36308;46.312;25.288;2022-11-02T05:40:14;86.95;;;46.53;;
50393;SDS011;36308;46.312;25.288;2022-11-02T05:42:40;79.13;;;43.85;;
50393;SDS011;36308;46.312;25.288;2022-11-02T05:45:05;94.50;;;48.13;;
50393;SDS011;36308;46.312;25.288;2022-11-02T05:47:32;109.25;;;56.78;;
50393;SDS011;36308;46.312;25.288;2022-11-02T05:49:58;70.15;;;36.00;;
50393;SDS011;36308;46.312;25.288;2022-11-02T05:52:23;46.40;;;25.38;;
50393;SDS011;36308;46.312;25.288;2022-11-02T05:54:49;43.05;;;20.17;;
50393;SDS011;36308;46.312;25.288;2022-11-02T05:57:14;31.55;;;18.58;;
50393;SDS011;36308;46.312;25.288;2022-11-02T05:59:41;39.25;;;23.83;;
50393;SDS011;36308;46.312;25.288;2022-11-02T06:02:06;69.75;;;38.05;;
50393;SDS011;36308;46.312;25.288;2022-11-02T06:04:32;59.55;;;33.05;;
50393;SDS011;36308;46.312;25.288;2022-11-02T06:06:57;52.67;;;30.52;;
50393;SDS011;36308;46.312;25.288;2022-11-02T06:09:22;47.13;;;29.15;;
50393;SDS011;36308;46.312;25.288;2022-11-02T06:11:48;44.00;;;25.33;;
50393;SDS011;36308;46.312;25.288;2022-11-02T06:14:13;30.85;;;19.85;;
50393;SDS011;36308;46.312;25.288;2022-11-02T06:16:38;30.88;;;18.60;;
50393;SDS011;36308;46.312;25.288;2022-11-02T06:19:04;29.55;;;16.17;;
50393;SDS011;36308;46.312;25.288;2022-11-02T06:21:29;25.33;;;16.10;;
50393;SDS011;36308;46.312;25.288;2022-11-02T06:23:55;48.40;;;31.52;;
50393;SDS011;36308;46.312;25.288;2022-11-02T06:26:22;49.90;;;30.85;;
50393;SDS011;36308;46.312;25.288;2022-11-02T06:28:47;45.38;;;28.88;;
50393;SDS011;36308;46.312;25.288;2022-11-02T06:31:13;46.63;;;30.73;;
50393;SDS011;36308;46.312;25.288;2022-11-02T06:33:41;54.20;;;32.42;;
50393;SDS011;36308;46.312;25.288;2022-11-02T06:36:07;48.55;;;30.13;;
50393;SDS011;36308;46.312;25.288;2022-11-02T06:38:33;44.75;;;29.13;;
50393;SDS011;36308;46.312;25.288;2022-11-02T06:40:59;45.83;;;30.13;;
50393;SDS011;36308;46.312;25.288;2022-11-02T06:43:27;37.47;;;24.77;;
50393;SDS011;36308;46.312;25.288;2022-11-02T06:45:53;42.83;;;21.05;;
50393;SDS011;36308;46.312;25.288;2022-11-02T06:48:20;34.47;;;20.77;;
50393;SDS011;36308;46.312;25.288;2022-11-02T06:50:45;33.95;;;19.45;;
50393;SDS011;36308;46.312;25.288;2022-11-02T06:53:11;38.33;;;20.30;;
50393;SDS011;36308;46.312;25.288;2022-11-02T06:55:36;34.97;;;22.33;;
50393;SDS011;36308;46.312;25.288;2022-11-02T06:58:02;38.05;;;22.92;;
50393;SDS011;36308;46.312;25.288;2022-11-02T07:00:27;40.17;;;23.75;;
50393;SDS011;36308;46.312;25.288;2022-11-02T07:03:04;49.58;;;24.90;;
50393;SDS011;36308;46.312;25.288;2022-11-02T07:05:31;57.10;;;32.03;;
50393;SDS011;36308;46.312;25.288;2022-11-02T07:07:57;45.00;;;27.45;;
50393;SDS011;36308;46.312;25.288;2022-11-02T07:10:23;48.05;;;27.60;;
50393;SDS011;36308;46.312;25.288;2022-11-02T07:12:53;51.08;;;28.48;;
50393;SDS011;36308;46.312;25.288;2022-11-02T07:15:19;43.90;;;27.80;;
50393;SDS011;36308;46.312;25.288;2022-11-02T07:17:46;46.80;;;28.95;;
50393;SDS011;36308;46.312;25.288;2022-11-02T07:20:11;51.17;;;29.15;;
50393;SDS011;36308;46.312;25.288;2022-11-02T07:22:37;50.53;;;29.10;;
50393;SDS011;36308;46.312;25.288;2022-11-02T07:25:02;45.35;;;29.70;;
50393;SDS011;36308;46.312;25.288;2022-11-02T07:27:28;46.05;;;29.35;;
50393;SDS011;36308;46.312;25.288;2022-11-02T07:29:54;45.00;;;31.17;;
50393;SDS011;36308;46.312;25.288;2022-11-02T07:32:19;57.70;;;37.15;;
50393;SDS011;36308;46.312;25.288;2022-11-02T07:34:44;54.60;;;32.45;;
50393;SDS011;36308;46.312;25.288;2022-11-02T07:37:10;46.25;;;29.85;;
50393;SDS011;36308;46.312;25.288;2022-11-02T07:39:35;51.10;;;29.88;;
50393;SDS011;36308;46.312;25.288;2022-11-02T07:42:01;41.67;;;27.75;;
50393;SDS011;36308;46.312;25.288;2022-11-02T07:44:26;43.20;;;26.55;;
50393;SDS011;36308;46.312;25.288;2022-11-02T07:46:52;47.50;;;31.20;;
50393;SDS011;36308;46.312;25.288;2022-11-02T07:49:17;67.72;;;38.40;;
50393;SDS011;36308;46.312;25.288;2022-11-02T07:51:43;48.33;;;30.52;;
50393;SDS011;36308;46.312;25.288;2022-11-02T07:54:08;44.83;;;29.67;;
50393;SDS011;36308;46.312;25.288;2022-11-02T07:56:34;44.70;;;27.95;;
50393;SDS011;36308;46.312;25.288;2022-11-02T07:58:59;41.08;;;26.95;;
50393;SDS011;36308;46.312;25.288;2022-11-02T08:01:24;39.30;;;24.05;;
50393;SDS011;36308;46.312;25.288;2022-11-02T08:03:50;35.85;;;21.48;;
50393;SDS011;36308;46.312;25.288;2022-11-02T08:06:15;35.38;;;21.95;;
50393;SDS011;36308;46.312;25.288;2022-11-02T08:08:41;39.17;;;25.40;;
50393;SDS011;36308;46.312;25.288;2022-11-02T08:11:07;36.17;;;23.77;;
50393;SDS011;36308;46.312;25.288;2022-11-02T08:13:33;43.50;;;22.08;;
50393;SDS011;36308;46.312;25.288;2022-11-02T08:15:59;37.63;;;22.85;;
50393;SDS011;36308;46.312;25.288;2022-11-02T08:18:25;39.60;;;25.65;;
50393;SDS011;36308;46.312;25.288;2022-11-02T08:20:53;31.40;;;21.52;;
50393;SDS011;36308;46.312;25.288;2022-11-02T08:23:20;30.90;;;21.88;;
50393;SDS011;36308;46.312;25.288;2022-11-02T08:25:46;42.55;;;23.80;;
50393;SDS011;36308;46.312;25.288;2022-11-02T08:28:13;44.15;;;25.73;;
50393;SDS011;36308;46.312;25.288;2022-11-02T08:30:41;31.17;;;19.90;;
50393;SDS011;36308;46.312;25.288;2022-11-02T08:33:08;47.67;;;25.50;;
50393;SDS011;36308;46.312;25.288;2022-11-02T08:35:37;30.20;;;20.02;;
50393;SDS011;36308;46.312;25.288;2022-11-02T08:38:04;32.30;;;18.10;;
50393;SDS011;36308;46.312;25.288;2022-11-02T08:40:30;54.55;;;29.15;;
50393;SDS011;36308;46.312;25.288;2022-11-02T08:43:00;28.67;;;16.73;;
50393;SDS011;36308;46.312;25.288;2022-11-02T08:45:27;35.67;;;21.00;;
50393;SDS011;36308;46.312;25.288;2022-11-02T08:47:54;33.03;;;18.85;;
50393;SDS011;36308;46.312;25.288;2022-11-02T08:50:20;30.65;;;17.88;;
50393;SDS011;36308;46.312;25.288;2022-11-02T08:52:47;26.42;;;15.30;;
50393;SDS011;36308;46.312;25.288;2022-11-02T08:55:12;18.17;;;11.95;;
50393;SDS011;36308;46.312;25.288;2022-11-02T09:00:09;19.92;;;11.70;;
50393;SDS011;36308;46.312;25.288;2022-11-02T09:02:35;21.90;;;13.30;;
50393;SDS011;36308;46.312;25.288;2022-11-02T09:05:00;29.52;;;15.23;;
50393;SDS011;36308;46.312;25.288;2022-11-02T09:07:27;30.60;;;15.13;;
50393;SDS011;36308;46.312;25.288;2022-11-02T09:09:52;23.60;;;15.00;;
50393;SDS011;36308;46.312;25.288;2022-11-02T09:12:18;24.27;;;14.27;;
50393;SDS011;36308;46.312;25.288;2022-11-02T09:14:44;22.38;;;13.05;;
50393;SDS011;36308;46.312;25.288;2022-11-02T09:17:09;21.75;;;12.77;;
50393;SDS011;36308;46.312;25.288;2022-11-02T09:19:35;20.10;;;12.65;;
50393;SDS011;36308;46.312;25.288;2022-11-02T09:22:00;21.98;;;14.75;;
50393;SDS011;36308;46.312;25.288;2022-11-02T09:24:25;27.38;;;13.35;;
50393;SDS011;36308;46.312;25.288;2022-11-02T09:26:51;23.88;;;12.55;;
50393;SDS011;36308;46.312;25.288;2022-11-02T09:29:17;20.10;;;12.10;;
50393;SDS011;36308;46.312;25.288;2022-11-02T09:31:42;17.30;;;11.40;;
50393;SDS011;36308;46.312;25.288;2022-11-02T09:34:08;23.67;;;13.20;;
50393;SDS011;36308;46.312;25.288;2022-11-02T09:36:33;19.20;;;11.48;;
50393;SDS011;36308;46.312;25.288;2022-11-02T09:38:59;20.33;;;12.05;;
50393;SDS011;36308;46.312;25.288;2022-11-02T09:41:45;18.42;;;11.32;;
50393;SDS011;36308;46.312;25.288;2022-11-02T09:45:16;16.42;;;11.73;;
50393;SDS011;36308;46.312;25.288;2022-11-02T09:47:18;24.75;;;11.13;;
50393;SDS011;36308;46.312;25.288;2022-11-02T09:49:45;26.88;;;14.90;;
50393;SDS011;36308;46.312;25.288;2022-11-02T09:52:12;19.10;;;12.25;;
50393;SDS011;36308;46.312;25.288;2022-11-02T09:54:48;222.63;;;111.88;;
50393;SDS011;36308;46.312;25.288;2022-11-02T09:59:57;63.63;;;29.92;;
50393;SDS011;36308;46.312;25.288;2022-11-02T10:07:56;15.90;;;10.07;;
50393;SDS011;36308;46.312;25.288;2022-11-02T10:18:29;17.20;;;10.55;;
50393;SDS011;36308;46.312;25.288;2022-11-02T10:20:59;21.67;;;13.85;;
50393;SDS011;36308;46.312;25.288;2022-11-02T10:26:07;18.23;;;11.38;;
50393;SDS011;36308;46.312;25.288;2022-11-02T10:28:47;15.68;;;10.25;;
50393;SDS011;36308;46.312;25.288;2022-11-02T10:31:22;17.25;;;10.55;;
50393;SDS011;36308;46.312;25.288;2022-11-02T10:33:52;18.10;;;10.48;;
50393;SDS011;36308;46.312;25.288;2022-11-02T10:42:00;18.08;;;11.90;;
50393;SDS011;36308;46.312;25.288;2022-11-02T10:52:25;29.83;;;18.20;;
50393;SDS011;36308;46.312;25.288;2022-11-02T10:54:59;20.15;;;11.52;;
50393;SDS011;36308;46.312;25.288;2022-11-02T10:57:25;15.73;;;9.80;;
50393;SDS011;36308;46.312;25.288;2022-11-02T11:00:20;15.60;;;7.57;;
50393;SDS011;36308;46.312;25.288;2022-11-02T11:03:07;12.25;;;7.65;;
50393;SDS011;36308;46.312;25.288;2022-11-02T11:05:34;12.05;;;7.22;;
50393;SDS011;36308;46.312;25.288;2022-11-02T11:11:30;14.02;;;7.95;;
50393;SDS011;36308;46.312;25.288;2022-11-02T11:14:19;13.95;;;7.53;;
50393;SDS011;36308;46.312;25.288;2022-11-02T11:16:46;20.92;;;11.65;;
50393;SDS011;36308;46.312;25.288;2022-11-02T11:21:53;20.20;;;10.90;;
50393;SDS011;36308;46.312;25.288;2022-11-02T11:24:22;17.65;;;10.70;;
50393;SDS011;36308;46.312;25.288;2022-11-02T11:27:03;16.42;;;10.60;;
50393;SDS011;36308;46.312;25.288;2022-11-02T11:29:56;17.77;;;11.00;;
50393;SDS011;36308;46.312;25.288;2022-11-02T11:32:26;17.27;;;10.90;;
50393;SDS011;36308;46.312;25.288;2022-11-02T11:35:04;15.85;;;10.05;;
50393;SDS011;36308;46.312;25.288;2022-11-02T11:37:33;16.45;;;10.20;;
50393;SDS011;36308;46.312;25.288;2022-11-02T11:40:00;12.13;;;8.45;;
50393;SDS011;36308;46.312;25.288;2022-11-02T11:42:36;12.77;;;7.25;;
50393;SDS011;36308;46.312;25.288;2022-11-02T11:45:03;13.15;;;6.50;;
50393;SDS011;36308;46.312;25.288;2022-11-02T11:47:35;9.80;;;6.63;;
50393;SDS011;36308;46.312;25.288;2022-11-02T11:50:04;12.48;;;7.18;;
50393;SDS011;36308;46.312;25.288;2022-11-02T11:52:36;12.82;;;6.55;;
50393;SDS011;36308;46.312;25.288;2022-11-02T12:00:41;9.88;;;6.07;;
50393;SDS011;36308;46.312;25.288;2022-11-02T12:03:08;12.35;;;7.28;;
50393;SDS011;36308;46.312;25.288;2022-11-02T12:30:20;13.73;;;9.40;;
50393;SDS011;36308;46.312;25.288;2022-11-02T12:33:04;12.23;;;8.52;;
50393;SDS011;36308;46.312;25.288;2022-11-02T12:38:22;13.43;;;8.45;;
50393;SDS011;36308;46.312;25.288;2022-11-02T12:41:09;15.55;;;8.52;;
50393;SDS011;36308;46.312;25.288;2022-11-02T12:43:38;16.45;;;8.93;;
50393;SDS011;36308;46.312;25.288;2022-11-02T12:52:13;15.30;;;9.52;;
50393;SDS011;36308;46.312;25.288;2022-11-02T12:54:34;18.48;;;10.32;;
50393;SDS011;36308;46.312;25.288;2022-11-02T12:57:04;15.50;;;9.48;;
50393;SDS011;36308;46.312;25.288;2022-11-02T12:59:36;18.52;;;9.23;;
50393;SDS011;36308;46.312;25.288;2022-11-02T13:02:09;19.20;;;9.57;;
50393;SDS011;36308;46.312;25.288;2022-11-02T13:07:11;17.67;;;10.15;;
50393;SDS011;36308;46.312;25.288;2022-11-02T13:09:40;18.33;;;10.50;;
50393;SDS011;36308;46.312;25.288;2022-11-02T13:12:07;16.20;;;10.55;;
50393;SDS011;36308;46.312;25.288;2022-11-02T13:14:39;17.00;;;11.07;;
50393;SDS011;36308;46.312;25.288;2022-11-02T13:17:12;24.17;;;12.63;;
50393;SDS011;36308;46.312;25.288;2022-11-02T13:22:20;22.42;;;14.82;;
50393;SDS011;36308;46.312;25.288;2022-11-02T13:25:18;21.98;;;14.82;;
50393;SDS011;36308;46.312;25.288;2022-11-02T13:27:55;24.42;;;17.17;;
50393;SDS011;36308;46.312;25.288;2022-11-02T13:30:24;26.20;;;17.13;;
50393;SDS011;36308;46.312;25.288;2022-11-02T13:35:31;24.63;;;17.27;;
50393;SDS011;36308;46.312;25.288;2022-11-02T13:49:11;28.77;;;20.77;;
50393;SDS011;36308;46.312;25.288;2022-11-02T13:51:50;26.15;;;19.80;;
50393;SDS011;36308;46.312;25.288;2022-11-02T13:54:24;26.25;;;19.08;;
50393;SDS011;36308;46.312;25.288;2022-11-02T13:56:57;34.30;;;23.85;;
50393;SDS011;36308;46.312;25.288;2022-11-02T13:59:29;37.47;;;23.50;;
50393;SDS011;36308;46.312;25.288;2022-11-02T14:01:59;26.63;;;20.13;;
50393;SDS011;36308;46.312;25.288;2022-11-02T14:04:27;27.02;;;20.38;;
50393;SDS011;36308;46.312;25.288;2022-11-02T14:07:01;25.50;;;19.67;;
50393;SDS011;36308;46.312;25.288;2022-11-02T14:14:41;32.72;;;21.17;;
50393;SDS011;36308;46.312;25.288;2022-11-02T14:17:16;31.98;;;20.80;;
50393;SDS011;36308;46.312;25.288;2022-11-02T14:22:09;29.88;;;21.08;;
50393;SDS011;36308;46.312;25.288;2022-11-02T14:29:37;31.60;;;23.85;;
50393;SDS011;36308;46.312;25.288;2022-11-02T14:42:47;34.13;;;23.45;;
50393;SDS011;36308;46.312;25.288;2022-11-02T14:45:30;37.40;;;23.20;;
50393;SDS011;36308;46.312;25.288;2022-11-02T14:48:02;35.90;;;22.58;;
50393;SDS011;36308;46.312;25.288;2022-11-02T14:50:29;35.80;;;25.58;;
50393;SDS011;36308;46.312;25.288;2022-11-02T14:55:28;40.47;;;27.67;;
50393;SDS011;36308;46.312;25.288;2022-11-02T14:58:01;42.30;;;28.08;;
50393;SDS011;36308;46.312;25.288;2022-11-02T15:00:35;42.97;;;30.35;;
50393;SDS011;36308;46.312;25.288;2022-11-02T15:03:03;44.35;;;31.20;;
50393;SDS011;36308;46.312;25.288;2022-11-02T15:05:36;42.20;;;27.75;;
50393;SDS011;36308;46.312;25.288;2022-11-02T15:08:15;38.42;;;25.33;;
50393;SDS011;36308;46.312;25.288;2022-11-02T15:10:49;45.13;;;28.95;;
50393;SDS011;36308;46.312;25.288;2022-11-02T15:18:19;48.03;;;30.33;;
50393;SDS011;36308;46.312;25.288;2022-11-02T15:23:48;52.05;;;30.73;;
50393;SDS011;36308;46.312;25.288;2022-11-02T15:26:19;46.47;;;29.80;;
50393;SDS011;36308;46.312;25.288;2022-11-02T15:28:49;43.25;;;26.60;;
50393;SDS011;36308;46.312;25.288;2022-11-02T15:31:18;37.80;;;25.42;;
50393;SDS011;36308;46.312;25.288;2022-11-02T15:33:50;41.25;;;26.00;;
50393;SDS011;36308;46.312;25.288;2022-11-02T15:36:32;45.25;;;26.88;;
50393;SDS011;36308;46.312;25.288;2022-11-02T15:39:01;43.17;;;28.00;;
50393;SDS011;36308;46.312;25.288;2022-11-02T15:44:11;34.22;;;23.30;;
50393;SDS011;36308;46.312;25.288;2022-11-02T15:57:54;35.80;;;22.83;;
50393;SDS011;36308;46.312;25.288;2022-11-02T16:00:37;44.92;;;29.15;;
50393;SDS011;36308;46.312;25.288;2022-11-02T16:03:03;48.70;;;31.75;;
50393;SDS011;36308;46.312;25.288;2022-11-02T16:05:40;38.70;;;25.27;;
50393;SDS011;36308;46.312;25.288;2022-11-02T16:08:21;45.63;;;28.83;;
50393;SDS011;36308;46.312;25.288;2022-11-02T16:11:04;40.28;;;25.55;;
50393;SDS011;36308;46.312;25.288;2022-11-02T16:13:34;41.42;;;25.65;;
50393;SDS011;36308;46.312;25.288;2022-11-02T16:16:01;61.05;;;32.13;;
50393;SDS011;36308;46.312;25.288;2022-11-02T16:18:34;57.92;;;31.98;;
50393;SDS011;36308;46.312;25.288;2022-11-02T16:21:01;56.22;;;32.28;;
50393;SDS011;36308;46.312;25.288;2022-11-02T16:23:30;56.38;;;31.85;;
50393;SDS011;36308;46.312;25.288;2022-11-02T16:25:59;54.05;;;31.63;;
50393;SDS011;36308;46.312;25.288;2022-11-02T16:28:27;52.92;;;30.02;;
50393;SDS011;36308;46.312;25.288;2022-11-02T16:33:24;42.38;;;25.05;;
50393;SDS011;36308;46.312;25.288;2022-11-02T16:35:51;56.75;;;30.70;;
50393;SDS011;36308;46.312;25.288;2022-11-02T16:38:18;49.70;;;28.23;;
50393;SDS011;36308;46.312;25.288;2022-11-02T16:40:44;43.90;;;25.67;;
50393;SDS011;36308;46.312;25.288;2022-11-02T16:43:13;46.47;;;26.15;;
50393;SDS011;36308;46.312;25.288;2022-11-02T16:45:39;45.80;;;28.15;;
50393;SDS011;36308;46.312;25.288;2022-11-02T16:48:26;48.47;;;27.60;;
50393;SDS011;36308;46.312;25.288;2022-11-02T16:53:28;51.58;;;28.40;;
50393;SDS011;36308;46.312;25.288;2022-11-02T16:55:56;43.15;;;27.02;;
50393;SDS011;36308;46.312;25.288;2022-11-02T16:58:24;45.08;;;27.88;;
50393;SDS011;36308;46.312;25.288;2022-11-02T17:00:51;47.38;;;30.58;;
50393;SDS011;36308;46.312;25.288;2022-11-02T17:03:19;47.60;;;30.15;;
50393;SDS011;36308;46.312;25.288;2022-11-02T17:05:49;45.08;;;29.15;;
50393;SDS011;36308;46.312;25.288;2022-11-02T17:08:36;45.88;;;30.13;;
50393;SDS011;36308;46.312;25.288;2022-11-02T17:11:03;50.42;;;29.73;;
50393;SDS011;36308;46.312;25.288;2022-11-02T17:13:31;92.93;;;56.83;;
50393;SDS011;36308;46.312;25.288;2022-11-02T17:16:10;52.50;;;32.63;;
50393;SDS011;36308;46.312;25.288;2022-11-02T17:18:35;41.47;;;26.73;;
50393;SDS011;36308;46.312;25.288;2022-11-02T17:23:37;49.15;;;27.70;;
50393;SDS011;36308;46.312;25.288;2022-11-02T17:39:16;72.97;;;50.63;;